Time;durP1;ratioP1;P1;durP2;ratioP2;P2;SDS_P1;SDS_P2;PMS_P1;PMS_P2;Temp;Humidity;BMP_temperature;BMP_pressure;BME280_temperature;BME280_humidity;BME280_pressure;Samples;Min_cycle;Max_cycle;Signal;HPM_P1;HPM_P2
2022/03/17 00:01:37;;;;;;;;;;;;;;;;;;5042760;28;20000;-87
2022/03/17 00:04:02;;;;;;;;;;;;;;;;;;5043055;28;19956;-85
2022/03/17 00:06:28;;;;;;;;;;;;;;;;;;5044238;28;20419;-86
2022/03/17 00:08:55;;;;;;;;;;;;;;;;;;5042345;28;21316;-85
2022/03/17 00:11:20;;;;;;;;;;;;;;;;;;5041215;28;19916;-86
2022/03/17 00:13:45;;;;;;;;;;;;;;;;;;5041763;28;19913;-82
2022/03/17 00:16:12;;;;;;;;;;;;;;;;;;5043204;28;19909;-84
2022/03/17 00:18:37;;;;;;;;;;;;;;;;;;5044088;28;19916;-84
2022/03/17 00:21:03;;;;;;;;;;;;;;;;;;5045056;28;19921;-85
2022/03/17 00:23:28;;;;;;;;;;;;;;;;;;5044633;28;20357;-85
2022/03/17 00:25:53;;;;;;;;;;;;;;;;;;5027110;28;19944;-81
2022/03/17 00:28:18;;;;;;;;;;;;;;;;;;5026599;28;20008;-83
2022/03/17 00:30:43;;;;;;;;;;;;;;;;;;5028194;28;20472;-82
2022/03/17 00:33:11;;;;;;;;;;;;;;;;;;5028872;28;19909;-84
2022/03/17 00:35:38;;;;;;;;;;;;;;;;;;5031871;28;19937;-83
2022/03/17 00:38:08;;;;;;;;;;;;;;;;;;5047724;28;20436;-84
2022/03/17 00:40:33;;;;;;;;;;;;;;;;;;5029756;28;19976;-83
2022/03/17 00:42:59;;;;;;;;;;;;;;;;;;5047039;28;19920;-80
2022/03/17 00:45:24;;;;;;;;;;;;;;;;;;5026015;28;19909;-85
2022/03/17 00:47:49;;;;;;;;;;;;;;;;;;5025257;28;19924;-86
2022/03/17 00:50:14;;;;;;;;;;;;;;;;;;5024998;28;19913;-84
2022/03/17 00:52:39;;;;;;;;;;;;;;;;;;5042654;28;20004;-83
2022/03/17 00:55:05;;;;;;;;;;;;;;;;;;5043530;28;19909;-85
2022/03/17 00:57:30;;;;;;;;;;;;;;;;;;5043403;28;19936;-85
2022/03/17 00:59:58;;;;;;;;;;;;;;;;;;5024655;28;19910;-85
2022/03/17 01:02:23;;;;;;;;;;;;;;;;;;5044675;28;19909;-84
2022/03/17 01:04:48;;;;;;;;;;;;;;;;;;5029175;28;19916;-86
2022/03/17 01:07:13;;;;;;;;;;;;;;;;;;5044936;28;19917;-86
2022/03/17 01:09:38;;;;;;;;;;;;;;;;;;5024784;28;19909;-85
2022/03/17 01:12:03;;;;;;;;;;;;;;;;;;5024474;28;19908;-84
2022/03/17 01:14:29;;;;;;;;;;;;;;;;;;5023976;28;19913;-84
2022/03/17 01:16:54;;;;;;;;;;;;;;;;;;5023650;28;19916;-81
2022/03/17 01:19:19;;;;;;;;;;;;;;;;;;5026066;28;20361;-87
2022/03/17 01:21:44;;;;;;;;;;;;;;;;;;5037483;28;19925;-82
2022/03/17 01:24:10;;;;;;;;;;;;;;;;;;5043192;28;19976;-85
2022/03/17 01:26:35;;;;;;;;;;;;;;;;;;5043322;28;19924;-84
2022/03/17 01:29:01;;;;;;;;;;;;;;;;;;5042813;28;19909;-84
2022/03/17 01:31:26;;;;;;;;;;;;;;;;;;5041894;28;19909;-87
2022/03/17 01:33:51;;;;;;;;;;;;;;;;;;5040459;28;19909;-88
2022/03/17 01:36:16;;;;;;;;;;;;;;;;;;5043083;28;20355;-87
2022/03/17 01:38:41;;;;;;;;;;;;;;;;;;5042395;28;19916;-80
2022/03/17 01:41:06;;;;;;;;;;;;;;;;;;5041439;28;20007;-84
2022/03/17 01:43:31;;;;;;;;;;;;;;;;;;5042961;28;20396;-84
2022/03/17 01:45:56;;;;;;;;;;;;;;;;;;5041205;28;19913;-84
2022/03/17 01:48:21;;;;;;;;;;;;;;;;;;5041272;28;19921;-83
2022/03/17 01:50:47;;;;;;;;;;;;;;;;;;5040770;28;19980;-85
2022/03/17 01:53:12;;;;;;;;;;;;;;;;;;5040664;28;19953;-84
2022/03/17 01:55:37;;;;;;;;;;;;;;;;;;5039528;28;19972;-87
2022/03/17 01:58:02;;;;;;;;;;;;;;;;;;5039342;28;19916;-85
2022/03/17 02:00:27;;;;;;;;;;;;;;;;;;5039695;28;19913;-85
2022/03/17 02:02:52;;;;;;;;;;;;;;;;;;5040862;28;19964;-85
2022/03/17 02:05:17;;;;;;;;;;;;;;;;;;5039243;28;20439;-85
2022/03/17 02:07:46;;;;;;;;;;;;;;;;;;5040134;28;19917;-84
2022/03/17 02:10:11;;;;;;;;;;;;;;;;;;5041715;28;19909;-86
2022/03/17 02:15:21;;;;;;;;;;;;;;;;;;5042180;28;19931;-89
2022/03/17 02:17:47;;;;;;;;;;;;;;;;;;5040033;28;19909;-86
2022/03/17 02:20:12;;;;;;;;;;;;;;;;;;5040559;28;19913;-86
2022/03/17 02:22:37;;;;;;;;;;;;;;;;;;5024141;28;19971;-85
2022/03/17 02:27:46;;;;;;;;;;;;;;;;;;5041487;28;20012;-84
2022/03/17 02:30:11;;;;;;;;;;;;;;;;;;5026250;28;19933;-83
2022/03/17 02:32:36;;;;;;;;;;;;;;;;;;5027420;28;19928;-84
2022/03/17 02:35:01;;;;;;;;;;;;;;;;;;5027270;28;19909;-85
2022/03/17 02:37:26;;;;;;;;;;;;;;;;;;5027206;28;19913;-81
2022/03/17 02:39:51;;;;;;;;;;;;;;;;;;5027112;28;20367;-84
2022/03/17 02:42:18;;;;;;;;;;;;;;;;;;5045322;28;20007;-85
2022/03/17 02:44:45;;;;;;;;;;;;;;;;;;5027336;28;20256;-85
2022/03/17 02:47:10;;;;;;;;;;;;;;;;;;5026212;28;19925;-84
2022/03/17 02:49:35;;;;;;;;;;;;;;;;;;5045840;28;19914;-82
2022/03/17 02:52:01;;;;;;;;;;;;;;;;;;5028588;28;19979;-86
2022/03/17 02:54:26;;;;;;;;;;;;;;;;;;5044627;28;20400;-82
2022/03/17 02:56:51;;;;;;;;;;;;;;;;;;5027162;28;19909;-85
2022/03/17 02:59:16;;;;;;;;;;;;;;;;;;5044416;28;19913;-83
2022/03/17 03:01:41;;;;;;;;;;;;;;;;;;5025265;28;19932;-84
2022/03/17 03:04:06;;;;;;;;;;;;;;;;;;5043808;28;19931;-85
2022/03/17 03:06:31;;;;;;;;;;;;;;;;;;5025858;28;19917;-85
2022/03/17 03:08:56;;;;;;;;;;;;;;;;;;5025746;28;20022;-86
2022/03/17 03:11:21;;;;;;;;;;;;;;;;;;5043184;28;19915;-85
2022/03/17 03:13:46;;;;;;;;;;;;;;;;;;5026577;28;19909;-85
2022/03/17 03:16:13;;;;;;;;;;;;;;;;;;5026233;28;19925;-83
2022/03/17 03:18:39;;;;;;;;;;;;;;;;;;5025101;28;19909;-84
2022/03/17 03:21:04;;;;;;;;;;;;;;;;;;5031860;28;19921;-87
2022/03/17 03:23:29;;;;;;;;;;;;;;;;;;5042886;28;19914;-85
2022/03/17 03:25:54;;;;;;;;;;;;;;;;;;5042712;28;19913;-86
2022/03/17 03:28:19;;;;;;;;;;;;;;;;;;5043639;28;19971;-85
2022/03/17 03:30:44;;;;;;;;;;;;;;;;;;5045228;28;19909;-85
2022/03/17 03:33:09;;;;;;;;;;;;;;;;;;5044138;28;19909;-86
2022/03/17 03:38:19;;;;;;;;;;;;;;;;;;5045276;28;19939;-83
2022/03/17 03:40:44;;;;;;;;;;;;;;;;;;5045278;28;19909;-85
2022/03/17 03:43:09;;;;;;;;;;;;;;;;;;5044630;28;19909;-86
2022/03/17 03:45:34;;;;;;;;;;;;;;;;;;5045090;28;19910;-85
2022/03/17 03:47:59;;;;;;;;;;;;;;;;;;5044077;28;19917;-84
2022/03/17 03:50:25;;;;;;;;;;;;;;;;;;5044236;28;19913;-85
2022/03/17 03:52:50;;;;;;;;;;;;;;;;;;5044320;28;19910;-85
2022/03/17 03:55:15;;;;;;;;;;;;;;;;;;5043601;28;19916;-85
2022/03/17 03:57:40;;;;;;;;;;;;;;;;;;5045623;28;19968;-83
2022/03/17 04:00:30;;;;;;;;;;;;;;;;;;5043944;28;19916;-85
2022/03/17 04:02:55;;;;;;;;;;;;;;;;;;5045943;28;19920;-87
2022/03/17 04:05:26;;;;;;;;;;;;;;;;;;5045254;28;20004;-87
2022/03/17 04:07:51;;;;;;;;;;;;;;;;;;5044268;28;19924;-86
2022/03/17 04:10:16;;;;;;;;;;;;;;;;;;5044512;28;19913;-86
2022/03/17 04:12:41;;;;;;;;;;;;;;;;;;5044866;28;19940;-84
2022/03/17 04:15:06;;;;;;;;;;;;;;;;;;5044490;28;19936;-84
2022/03/17 04:17:32;;;;;;;;;;;;;;;;;;5044609;28;20259;-88
2022/03/17 04:19:57;;;;;;;;;;;;;;;;;;5044272;28;19910;-86
2022/03/17 04:22:22;;;;;;;;;;;;;;;;;;5027688;28;20215;-85
2022/03/17 04:24:47;;;;;;;;;;;;;;;;;;5045332;28;19913;-84
2022/03/17 04:27:12;;;;;;;;;;;;;;;;;;5027612;28;19917;-86
2022/03/17 04:29:37;;;;;;;;;;;;;;;;;;5027241;28;20007;-85
2022/03/17 04:32:03;;;;;;;;;;;;;;;;;;5027657;28;19963;-83
2022/03/17 04:34:28;;;;;;;;;;;;;;;;;;5027554;28;19952;-85
2022/03/17 04:36:53;;;;;;;;;;;;;;;;;;5045134;28;19909;-85
2022/03/17 04:39:18;;;;;;;;;;;;;;;;;;5027536;28;19909;-87
2022/03/17 04:41:44;;;;;;;;;;;;;;;;;;5027405;28;19909;-88
2022/03/17 04:44:10;;;;;;;;;;;;;;;;;;5027605;28;19893;-85
2022/03/17 04:46:35;;;;;;;;;;;;;;;;;;5026576;28;19913;-85
2022/03/17 04:49:00;;;;;;;;;;;;;;;;;;5026316;28;19960;-84
2022/03/17 04:51:25;;;;;;;;;;;;;;;;;;5045134;28;19909;-87
2022/03/17 04:53:51;;;;;;;;;;;;;;;;;;5046269;28;19910;-85
2022/03/17 04:56:19;;;;;;;;;;;;;;;;;;5028317;28;19913;-85
2022/03/17 04:58:45;;;;;;;;;;;;;;;;;;5027396;28;19910;-84
2022/03/17 05:01:12;;;;;;;;;;;;;;;;;;5044858;28;19968;-84
2022/03/17 05:03:37;;;;;;;;;;;;;;;;;;5044554;28;19928;-88
2022/03/17 05:06:02;;;;;;;;;;;;;;;;;;5026631;28;19916;-82
2022/03/17 05:08:27;;;;;;;;;;;;;;;;;;5045222;28;19921;-85
2022/03/17 05:10:53;;;;;;;;;;;;;;;;;;5027654;28;19959;-86
2022/03/17 05:13:19;;;;;;;;;;;;;;;;;;5027871;28;19910;-88
2022/03/17 05:15:44;;;;;;;;;;;;;;;;;;5027806;28;20000;-86
2022/03/17 05:18:09;;;;;;;;;;;;;;;;;;5027247;28;19909;-89
2022/03/17 05:20:35;;;;;;;;;;;;;;;;;;5029204;28;19921;-83
2022/03/17 05:23:00;;;;;;;;;;;;;;;;;;5043355;28;20367;-85
2022/03/17 05:25:25;;;;;;;;;;;;;;;;;;5045015;28;19913;-87
2022/03/17 05:27:50;;;;;;;;;;;;;;;;;;5046317;28;19924;-85
2022/03/17 05:30:16;;;;;;;;;;;;;;;;;;5046219;28;19913;-84
2022/03/17 05:32:41;;;;;;;;;;;;;;;;;;5046195;28;19914;-85
2022/03/17 05:35:06;;;;;;;;;;;;;;;;;;5046189;28;19932;-88
2022/03/17 05:37:31;;;;;;;;;;;;;;;;;;5046229;28;19909;-83
2022/03/17 05:39:56;;;;;;;;;;;;;;;;;;5047000;28;19905;-86
2022/03/17 05:42:21;;;;;;;;;;;;;;;;;;5046840;28;19920;-84
2022/03/17 05:44:51;;;;;;;;;;;;;;;;;;5046602;28;20297;-90
2022/03/17 05:47:17;;;;;;;;;;;;;;;;;;5048283;28;19928;-88
2022/03/17 05:49:42;;;;;;;;;;;;;;;;;;5046598;28;20350;-87
2022/03/17 05:52:07;;;;;;;;;;;;;;;;;;5047736;28;19909;-88
2022/03/17 05:54:32;;;;;;;;;;;;;;;;;;5046298;28;19917;-82
2022/03/17 05:56:57;;;;;;;;;;;;;;;;;;5038541;28;19967;-87
2022/03/17 05:59:23;;;;;;;;;;;;;;;;;;5038071;28;19909;-88
2022/03/17 06:01:48;;;;;;;;;;;;;;;;;;5037654;28;20358;-88
2022/03/17 06:04:13;;;;;;;;;;;;;;;;;;5040581;28;19913;-85
2022/03/17 06:09:06;;;;;;;;;;;;;;;;;;5041927;28;19916;-82
2022/03/17 06:11:32;;;;;;;;;;;;;;;;;;5039785;28;19909;-84
2022/03/17 06:13:59;;;;;;;;;;;;;;;;;;5041759;28;19909;-85
2022/03/17 06:16:24;;;;;;;;;;;;;;;;;;5041009;28;20270;-84
2022/03/17 06:18:50;;;;;;;;;;;;;;;;;;5041002;28;20313;-87
2022/03/17 06:21:15;;;;;;;;;;;;;;;;;;5042060;28;19943;-87
2022/03/17 06:23:40;;;;;;;;;;;;;;;;;;5039371;28;19909;-86
2022/03/17 06:26:06;;;;;;;;;;;;;;;;;;5040893;28;19909;-83
2022/03/17 06:28:31;;;;;;;;;;;;;;;;;;5039191;28;19923;-86
2022/03/17 06:30:56;;;;;;;;;;;;;;;;;;5040590;28;19913;-84
2022/03/17 06:33:21;;;;;;;;;;;;;;;;;;5041153;28;19929;-86
2022/03/17 06:35:49;;;;;;;;;;;;;;;;;;5040764;28;19909;-85
2022/03/17 06:38:14;;;;;;;;;;;;;;;;;;5040933;28;19907;-83
2022/03/17 06:40:39;;;;;;;;;;;;;;;;;;5040485;28;19975;-83
2022/03/17 06:43:04;;;;;;;;;;;;;;;;;;5039244;28;19916;-82
2022/03/17 06:45:29;;;;;;;;;;;;;;;;;;5039165;28;19976;-83
2022/03/17 06:47:54;;;;;;;;;;;;;;;;;;5039352;28;20341;-85
2022/03/17 06:50:22;;;;;;;;;;;;;;;;;;5040856;28;19909;-83
2022/03/17 06:52:47;;;;;;;;;;;;;;;;;;5040376;28;20007;-85
2022/03/17 06:55:12;;;;;;;;;;;;;;;;;;5039573;28;19960;-84
2022/03/17 06:57:38;;;;;;;;;;;;;;;;;;5040645;28;20012;-85
2022/03/17 07:00:03;;;;;;;;;;;;;;;;;;5039775;28;19955;-80
2022/03/17 07:02:28;;;;;;;;;;;;;;;;;;5039945;28;19970;-85
2022/03/17 07:04:53;;;;;;;;;;;;;;;;;;5041695;28;19909;-86
2022/03/17 07:07:18;;;;;;;;;;;;;;;;;;5040982;28;19925;-89
2022/03/17 07:09:43;;;;;;;;;;;;;;;;;;5040035;28;20259;-84
2022/03/17 07:12:08;;;;;;;;;;;;;;;;;;5038768;28;19913;-84
2022/03/17 07:14:33;;;;;;;;;;;;;;;;;;5036611;28;19917;-82
2022/03/17 07:16:58;;;;;;;;;;;;;;;;;;5035672;28;20375;-83
2022/03/17 07:19:24;;;;;;;;;;;;;;;;;;5037799;28;19909;-83
2022/03/17 07:21:49;;;;;;;;;;;;;;;;;;5037663;28;19925;-84
2022/03/17 07:24:15;;;;;;;;;;;;;;;;;;5038130;28;19909;-82
2022/03/17 07:26:40;;;;;;;;;;;;;;;;;;5037970;28;19901;-84
2022/03/17 07:29:06;;;;;;;;;;;;;;;;;;5039834;28;19936;-84
2022/03/17 07:31:31;;;;;;;;;;;;;;;;;;5038744;28;19914;-82
2022/03/17 07:33:56;;;;;;;;;;;;;;;;;;5039176;28;20000;-82
2022/03/17 07:36:21;;;;;;;;;;;;;;;;;;5039650;28;19916;-82
2022/03/17 07:38:47;;;;;;;;;;;;;;;;;;5038659;28;19909;-83
2022/03/17 07:41:13;;;;;;;;;;;;;;;;;;5038462;28;19917;-83
2022/03/17 07:43:38;;;;;;;;;;;;;;;;;;5038174;28;20000;-83
2022/03/17 07:46:04;;;;;;;;;;;;;;;;;;5038142;28;20361;-82
2022/03/17 07:48:29;;;;;;;;;;;;;;;;;;5038518;28;19963;-83
2022/03/17 07:50:54;;;;;;;;;;;;;;;;;;5037024;28;19913;-83
2022/03/17 07:53:19;;;;;;;;;;;;;;;;;;5038126;28;19909;-82
2022/03/17 07:55:44;;;;;;;;;;;;;;;;;;5039324;28;20044;-82
2022/03/17 07:58:12;;;;;;;;;;;;;;;;;;5037458;28;19909;-83
2022/03/17 08:00:38;;;;;;;;;;;;;;;;;;5038032;28;20410;-83
2022/03/17 08:03:03;;;;;;;;;;;;;;;;;;5039441;28;19998;-84
2022/03/17 08:05:28;;;;;;;;;;;;;;;;;;5040541;28;19909;-83
2022/03/17 08:07:53;;;;;;;;;;;;;;;;;;5039330;28;20313;-87
2022/03/17 08:10:18;;;;;;;;;;;;;;;;;;5039383;28;19971;-84
2022/03/17 08:12:43;;;;;;;;;;;;;;;;;;5039739;28;20541;-85
2022/03/17 08:15:10;;;;;;;;;;;;;;;;;;5039252;28;19929;-87
2022/03/17 08:17:37;;;;;;;;;;;;;;;;;;5033282;28;19975;-84
2022/03/17 08:20:05;;;;;;;;;;;;;;;;;;5013740;28;19918;-85
2022/03/17 08:22:30;;;;;;;;;;;;;;;;;;4997879;28;19940;-84
2022/03/17 08:24:55;;;;;;;;;;;;;;;;;;4998599;28;20004;-83
2022/03/17 08:27:20;;;;;;;;;;;;;;;;;;4997746;28;19996;-82
2022/03/17 08:29:46;;;;;;;;;;;;;;;;;;4999311;28;19972;-82
2022/03/17 08:32:11;;;;;;;;;;;;;;;;;;4998997;28;19961;-83
2022/03/17 08:34:37;;;;;;;;;;;;;;;;;;5000207;28;19956;-82
2022/03/17 08:37:03;;;;;;;;;;;;;;;;;;5015380;28;19913;-82
2022/03/17 08:39:29;;;;;;;;;;;;;;;;;;5001258;28;19909;-83
2022/03/17 08:41:55;;;;;;;;;;;;;;;;;;5001134;28;19936;-82
2022/03/17 08:44:21;;;;;;;;;;;;;;;;;;5018955;28;20359;-83
2022/03/17 08:49:30;;;;;;;;;;;;;;;;;;5017894;28;19917;-86
2022/03/17 08:51:55;;;;;;;;;;;;;;;;;;5000482;28;19909;-84
2022/03/17 08:54:22;;;;;;;;;;;;;;;;;;5018312;28;19909;-85
2022/03/17 08:56:47;;;;;;;;;;;;;;;;;;5000042;28;19917;-84
2022/03/17 08:59:12;;;;;;;;;;;;;;;;;;5016654;28;19917;-84
2022/03/17 09:01:37;;;;;;;;;;;;;;;;;;5018560;28;19917;-85
2022/03/17 09:04:03;;;;;;;;;;;;;;;;;;5017428;28;19936;-82
2022/03/17 09:06:29;;;;;;;;;;;;;;;;;;5017743;28;19910;-86
2022/03/17 09:08:54;;;;;;;;;;;;;;;;;;5001802;28;19914;-85
2022/03/17 09:11:20;;;;;;;;;;;;;;;;;;5018606;28;19909;-85
2022/03/17 09:13:48;;;;;;;;;;;;;;;;;;5000092;28;19920;-88
2022/03/17 09:16:13;;;;;;;;;;;;;;;;;;4999108;28;19914;-86
2022/03/17 09:18:41;;;;;;;;;;;;;;;;;;4999828;28;19910;-82
2022/03/17 09:21:06;;;;;;;;;;;;;;;;;;5007462;28;19925;-84
2022/03/17 09:23:33;;;;;;;;;;;;;;;;;;5017137;28;19910;-84
2022/03/17 09:25:58;;;;;;;;;;;;;;;;;;5017620;28;19911;-84
2022/03/17 09:28:23;;;;;;;;;;;;;;;;;;5016863;28;19967;-84
2022/03/17 09:30:48;;;;;;;;;;;;;;;;;;5017347;28;19918;-83
2022/03/17 09:33:13;;;;;;;;;;;;;;;;;;5017073;28;19920;-85
2022/03/17 09:35:38;;;;;;;;;;;;;;;;;;5018619;28;19918;-82
2022/03/17 09:38:03;;;;;;;;;;;;;;;;;;5017811;28;19914;-84
2022/03/17 09:40:28;;;;;;;;;;;;;;;;;;5021005;28;19913;-84
2022/03/17 09:43:18;;;;;;;;;;;;;;;;;;5017605;28;19916;-86
2022/03/17 09:45:38;;;;;;;;;;;;;;;;;;5018806;28;19916;-84
2022/03/17 09:48:04;;;;;;;;;;;;;;;;;;5017138;28;19918;-87
2022/03/17 09:50:29;;;;;;;;;;;;;;;;;;5019466;28;20263;-88
2022/03/17 09:52:54;;;;;;;;;;;;;;;;;;5015809;28;19917;-87
2022/03/17 09:55:25;;;;;;;;;;;;;;;;;;5018907;28;20358;-86
2022/03/17 09:57:50;;;;;;;;;;;;;;;;;;5016493;28;19913;-86
2022/03/17 10:00:16;;;;;;;;;;;;;;;;;;5014420;28;19917;-88
2022/03/17 10:02:41;;;;;;;;;;;;;;;;;;5014778;28;19913;-86
2022/03/17 10:05:06;;;;;;;;;;;;;;;;;;5014816;28;19965;-86
2022/03/17 10:07:34;;;;;;;;;;;;;;;;;;5014928;28;19917;-86
2022/03/17 10:09:59;;;;;;;;;;;;;;;;;;5013342;28;20379;-84
2022/03/17 10:12:26;;;;;;;;;;;;;;;;;;5015756;28;20339;-86
2022/03/17 10:14:51;;;;;;;;;;;;;;;;;;5016627;28;20000;-87
2022/03/17 10:17:16;;;;;;;;;;;;;;;;;;5016936;28;19991;-85
2022/03/17 10:19:41;;;;;;;;;;;;;;;;;;5018145;28;19910;-85
2022/03/17 10:22:06;;;;;;;;;;;;;;;;;;5016756;28;19922;-85
2022/03/17 10:24:33;;;;;;;;;;;;;;;;;;5017727;28;20413;-87
2022/03/17 10:26:59;;;;;;;;;;;;;;;;;;5014791;28;19917;-85
2022/03/17 10:29:24;;;;;;;;;;;;;;;;;;5017610;28;19917;-87
2022/03/17 10:31:49;;;;;;;;;;;;;;;;;;5016292;28;19918;-86
2022/03/17 10:34:14;;;;;;;;;;;;;;;;;;5017213;28;20363;-83
2022/03/17 10:36:41;;;;;;;;;;;;;;;;;;5015465;28;20267;-86
2022/03/17 10:39:06;;;;;;;;;;;;;;;;;;5015816;28;19916;-86
2022/03/17 10:41:31;;;;;;;;;;;;;;;;;;5015095;28;19909;-87
2022/03/17 10:43:56;;;;;;;;;;;;;;;;;;5014946;28;19916;-86
2022/03/17 10:46:22;;;;;;;;;;;;;;;;;;5016960;28;19913;-85
2022/03/17 10:48:47;;;;;;;;;;;;;;;;;;5015429;28;20349;-86
2022/03/17 10:51:12;;;;;;;;;;;;;;;;;;5018557;28;19913;-84
2022/03/17 10:53:37;;;;;;;;;;;;;;;;;;5018704;28;19913;-86
2022/03/17 10:56:02;;;;;;;;;;;;;;;;;;5018824;28;19910;-85
2022/03/17 10:58:28;;;;;;;;;;;;;;;;;;5018021;28;19914;-87
2022/03/17 11:00:53;;;;;;;;;;;;;;;;;;5019193;28;19925;-87
2022/03/17 11:03:18;;;;;;;;;;;;;;;;;;5019778;28;19917;-87
2022/03/17 11:05:43;;;;;;;;;;;;;;;;;;5020088;28;19909;-85
2022/03/17 11:08:11;;;;;;;;;;;;;;;;;;5019746;28;20000;-84
2022/03/17 11:10:36;;;;;;;;;;;;;;;;;;5018554;28;19941;-86
2022/03/17 11:13:06;;;;;;;;;;;;;;;;;;5018972;28;19906;-85
2022/03/17 11:15:31;;;;;;;;;;;;;;;;;;5017615;28;19909;-85
2022/03/17 11:17:56;;;;;;;;;;;;;;;;;;5018363;28;19905;-86
2022/03/17 11:20:22;;;;;;;;;;;;;;;;;;5018061;28;19921;-83
2022/03/17 11:22:50;;;;;;;;;;;;;;;;;;5018077;28;20326;-83
2022/03/17 11:25:15;;;;;;;;;;;;;;;;;;5019405;28;19969;-84
2022/03/17 11:27:41;;;;;;;;;;;;;;;;;;5019099;28;19917;-84
2022/03/17 11:30:06;;;;;;;;;;;;;;;;;;5019031;28;19952;-85
2022/03/17 11:32:31;;;;;;;;;;;;;;;;;;5017730;28;20012;-84
2022/03/17 11:34:58;;;;;;;;;;;;;;;;;;5019278;28;19909;-85
2022/03/17 11:37:23;;;;;;;;;;;;;;;;;;5019326;28;19909;-85
2022/03/17 11:39:48;;;;;;;;;;;;;;;;;;5019330;28;19909;-86
2022/03/17 11:42:13;;;;;;;;;;;;;;;;;;5018703;28;19910;-84
2022/03/17 11:44:39;;;;;;;;;;;;;;;;;;5017487;28;19941;-84
2022/03/17 11:47:04;;;;;;;;;;;;;;;;;;5018836;28;19917;-84
2022/03/17 11:49:30;;;;;;;;;;;;;;;;;;5017386;28;19910;-84
2022/03/17 11:51:55;;;;;;;;;;;;;;;;;;5018498;28;20409;-84
2022/03/17 11:54:20;;;;;;;;;;;;;;;;;;5018364;28;19985;-85
2022/03/17 11:56:47;;;;;;;;;;;;;;;;;;5017139;28;20095;-84
2022/03/17 11:59:12;;;;;;;;;;;;;;;;;;5017241;28;19909;-84
2022/03/17 12:01:37;;;;;;;;;;;;;;;;;;5016653;28;19972;-88
2022/03/17 12:04:03;;;;;;;;;;;;;;;;;;5016233;28;19910;-85
2022/03/17 12:06:28;;;;;;;;;;;;;;;;;;5016284;28;19921;-84
2022/03/17 12:08:55;;;;;;;;;;;;;;;;;;5017823;28;19925;-84
2022/03/17 12:11:24;;;;;;;;;;;;;;;;;;5017007;28;19909;-84
2022/03/17 12:13:49;;;;;;;;;;;;;;;;;;5016702;28;19910;-84
2022/03/17 12:16:17;;;;;;;;;;;;;;;;;;5016359;28;19900;-84
2022/03/17 12:18:42;;;;;;;;;;;;;;;;;;5016767;28;19920;-83
2022/03/17 12:21:07;;;;;;;;;;;;;;;;;;5015805;28;20024;-83
2022/03/17 12:23:32;;;;;;;;;;;;;;;;;;5018146;28;19920;-85
2022/03/17 12:25:57;;;;;;;;;;;;;;;;;;5017525;28;19972;-85
2022/03/17 12:28:22;;;;;;;;;;;;;;;;;;5017817;28;19918;-84
2022/03/17 12:30:48;;;;;;;;;;;;;;;;;;5018316;28;19991;-85
2022/03/17 12:33:13;;;;;;;;;;;;;;;;;;5018459;28;19910;-86
2022/03/17 12:35:39;;;;;;;;;;;;;;;;;;5017012;28;19910;-86
2022/03/17 12:38:04;;;;;;;;;;;;;;;;;;5015138;28;20278;-84
2022/03/17 12:40:29;;;;;;;;;;;;;;;;;;5017367;28;19910;-85
2022/03/17 12:42:54;;;;;;;;;;;;;;;;;;5017175;28;19932;-84
2022/03/17 12:45:20;;;;;;;;;;;;;;;;;;5015155;28;19972;-85
2022/03/17 12:47:56;;;;;;;;;;;;;;;;;;5014814;28;19924;-84
2022/03/17 12:50:21;;;;;;;;;;;;;;;;;;5015965;28;19909;-86
2022/03/17 12:52:46;;;;;;;;;;;;;;;;;;5015303;28;20312;-86
2022/03/17 12:55:11;;;;;;;;;;;;;;;;;;5015083;28;19910;-86
2022/03/17 12:57:40;;;;;;;;;;;;;;;;;;5015266;28;20382;-85
2022/03/17 13:00:05;;;;;;;;;;;;;;;;;;5015503;28;20063;-84
2022/03/17 13:02:30;;;;;;;;;;;;;;;;;;5017317;28;19976;-83
2022/03/17 13:04:57;;;;;;;;;;;;;;;;;;5015961;28;20389;-84
2022/03/17 13:07:22;;;;;;;;;;;;;;;;;;5016094;28;19906;-85
2022/03/17 13:09:47;;;;;;;;;;;;;;;;;;5017114;28;19916;-84
2022/03/17 13:14:56;;;;;;;;;;;;;;;;;;5017351;28;20270;-85
2022/03/17 13:17:22;;;;;;;;;;;;;;;;;;5015111;28;19909;-84
2022/03/17 13:19:49;;;;;;;;;;;;;;;;;;5017874;28;19910;-84
2022/03/17 13:22:14;;;;;;;;;;;;;;;;;;5016576;28;19921;-86
2022/03/17 13:24:39;;;;;;;;;;;;;;;;;;5017779;28;19909;-84
2022/03/17 13:27:04;;;;;;;;;;;;;;;;;;5016454;28;19913;-87
2022/03/17 13:29:31;;;;;;;;;;;;;;;;;;5017463;28;19909;-84
2022/03/17 13:31:56;;;;;;;;;;;;;;;;;;5016394;28;19922;-86
2022/03/17 13:34:21;;;;;;;;;;;;;;;;;;5014897;28;20052;-85
2022/03/17 13:36:46;;;;;;;;;;;;;;;;;;5016829;28;19909;-84
2022/03/17 13:39:12;;;;;;;;;;;;;;;;;;5017763;28;19909;-83
2022/03/17 13:41:37;;;;;;;;;;;;;;;;;;5016115;28;19910;-85
2022/03/17 13:44:04;;;;;;;;;;;;;;;;;;5016742;28;19910;-85
2022/03/17 13:46:32;;;;;;;;;;;;;;;;;;5016792;28;19948;-85
2022/03/17 13:48:57;;;;;;;;;;;;;;;;;;5015975;28;19960;-84
2022/03/17 13:51:22;;;;;;;;;;;;;;;;;;5015978;28;19909;-85
2022/03/17 13:53:47;;;;;;;;;;;;;;;;;;5017981;28;19916;-85
2022/03/17 13:56:12;;;;;;;;;;;;;;;;;;5016900;28;20286;-84
2022/03/17 13:58:37;;;;;;;;;;;;;;;;;;5018285;28;19921;-88
2022/03/17 14:01:11;;;;;;;;;;;;;;;;;;5016686;28;19924;-85
2022/03/17 14:03:37;;;;;;;;;;;;;;;;;;5015852;28;19932;-83
2022/03/17 14:06:02;;;;;;;;;;;;;;;;;;5016007;28;19914;-86
2022/03/17 14:08:27;;;;;;;;;;;;;;;;;;5014899;28;20012;-85
2022/03/17 14:10:53;;;;;;;;;;;;;;;;;;5016298;28;19914;-84
2022/03/17 14:13:20;;;;;;;;;;;;;;;;;;5017577;28;20322;-84
2022/03/17 14:15:46;;;;;;;;;;;;;;;;;;5015423;28;19909;-82
2022/03/17 14:18:11;;;;;;;;;;;;;;;;;;5015361;28;19964;-82
2022/03/17 14:20:37;;;;;;;;;;;;;;;;;;5016184;28;19932;-83
2022/03/17 14:25:46;;;;;;;;;;;;;;;;;;5020887;28;20052;-82
2022/03/17 14:28:11;;;;;;;;;;;;;;;;;;5001018;28;20391;-83
2022/03/17 14:30:37;;;;;;;;;;;;;;;;;;5003290;28;20326;-84
2022/03/17 14:33:02;;;;;;;;;;;;;;;;;;5020860;28;19910;-86
2022/03/17 14:35:27;;;;;;;;;;;;;;;;;;5004062;28;19932;-83
2022/03/17 14:37:52;;;;;;;;;;;;;;;;;;5003268;28;19910;-83
2022/03/17 14:40:17;;;;;;;;;;;;;;;;;;5020427;28;19919;-82
2022/03/17 14:42:43;;;;;;;;;;;;;;;;;;5002642;28;19910;-84
2022/03/17 14:45:10;;;;;;;;;;;;;;;;;;5002240;28;19909;-83
2022/03/17 14:47:35;;;;;;;;;;;;;;;;;;5003581;28;19918;-85
2022/03/17 14:50:00;;;;;;;;;;;;;;;;;;5020898;28;19916;-85
2022/03/17 14:52:25;;;;;;;;;;;;;;;;;;5003677;28;19910;-85
2022/03/17 14:54:50;;;;;;;;;;;;;;;;;;5003286;28;19910;-84
2022/03/17 14:57:16;;;;;;;;;;;;;;;;;;5003230;28;19909;-84
2022/03/17 14:59:41;;;;;;;;;;;;;;;;;;5002791;28;20429;-84
2022/03/17 15:02:07;;;;;;;;;;;;;;;;;;5005077;28;20318;-85
2022/03/17 15:04:32;;;;;;;;;;;;;;;;;;5020175;28;19909;-82
2022/03/17 15:06:57;;;;;;;;;;;;;;;;;;5020025;28;19925;-83
2022/03/17 15:09:22;;;;;;;;;;;;;;;;;;5002203;28;20055;-83
2022/03/17 15:11:47;;;;;;;;;;;;;;;;;;5019978;28;19917;-83
2022/03/17 15:14:14;;;;;;;;;;;;;;;;;;5002641;28;20366;-84
2022/03/17 15:16:39;;;;;;;;;;;;;;;;;;5019390;28;19916;-83
2022/03/17 15:19:04;;;;;;;;;;;;;;;;;;5002624;28;20020;-83
2022/03/17 15:21:30;;;;;;;;;;;;;;;;;;5019979;28;19938;-84
2022/03/17 15:23:56;;;;;;;;;;;;;;;;;;5019953;28;20260;-83
2022/03/17 15:26:21;;;;;;;;;;;;;;;;;;5002666;28;19996;-85
2022/03/17 15:31:30;;;;;;;;;;;;;;;;;;5020347;28;19921;-84
2022/03/17 15:33:55;;;;;;;;;;;;;;;;;;5019946;28;19909;-84
2022/03/17 15:36:20;;;;;;;;;;;;;;;;;;5018183;28;19979;-83
2022/03/17 15:38:46;;;;;;;;;;;;;;;;;;5020126;28;20383;-84
2022/03/17 15:41:11;;;;;;;;;;;;;;;;;;5019446;28;19917;-84
2022/03/17 15:43:40;;;;;;;;;;;;;;;;;;5002398;28;20359;-86
2022/03/17 15:46:05;;;;;;;;;;;;;;;;;;5002475;28;20494;-87
2022/03/17 15:48:30;;;;;;;;;;;;;;;;;;5001948;28;19917;-85
2022/03/17 15:50:55;;;;;;;;;;;;;;;;;;5000758;28;19910;-81
2022/03/17 15:53:20;;;;;;;;;;;;;;;;;;4998432;28;19909;-81
2022/03/17 15:55:45;;;;;;;;;;;;;;;;;;5000862;28;19913;-83
2022/03/17 15:58:10;;;;;;;;;;;;;;;;;;5001582;28;19910;-82
2022/03/17 16:00:37;;;;;;;;;;;;;;;;;;5001643;28;19946;-83
2022/03/17 16:03:03;;;;;;;;;;;;;;;;;;5001053;28;19996;-84
2022/03/17 16:05:28;;;;;;;;;;;;;;;;;;5000305;28;19913;-84
2022/03/17 16:07:53;;;;;;;;;;;;;;;;;;4999211;28;19917;-82
2022/03/17 16:15:46;;;;;;;;;;;;;;;;;;5017628;28;19916;-83
2022/03/17 16:18:11;;;;;;;;;;;;;;;;;;5018820;28;19945;-84
2022/03/17 16:20:36;;;;;;;;;;;;;;;;;;5002973;28;19956;-84
2022/03/17 16:23:01;;;;;;;;;;;;;;;;;;5017808;28;19968;-85
2022/03/17 16:25:26;;;;;;;;;;;;;;;;;;5017477;28;20490;-84
2022/03/17 16:27:52;;;;;;;;;;;;;;;;;;5018219;28;19921;-84
2022/03/17 16:30:17;;;;;;;;;;;;;;;;;;5018239;28;19926;-83
2022/03/17 16:32:43;;;;;;;;;;;;;;;;;;5018459;28;20008;-84
2022/03/17 16:35:08;;;;;;;;;;;;;;;;;;5018471;28;19913;-85
2022/03/17 16:37:33;;;;;;;;;;;;;;;;;;5016755;28;19916;-84
2022/03/17 16:40:00;;;;;;;;;;;;;;;;;;5018132;28;19916;-85
2022/03/17 16:42:25;;;;;;;;;;;;;;;;;;5017915;28;19917;-85
2022/03/17 16:44:50;;;;;;;;;;;;;;;;;;5018605;28;19909;-87
2022/03/17 16:47:15;;;;;;;;;;;;;;;;;;5016724;28;19914;-84
2022/03/17 16:49:42;;;;;;;;;;;;;;;;;;5016318;28;19917;-83
2022/03/17 16:52:07;;;;;;;;;;;;;;;;;;5017503;28;19910;-85
2022/03/17 16:54:32;;;;;;;;;;;;;;;;;;5017629;28;19920;-86
2022/03/17 16:56:59;;;;;;;;;;;;;;;;;;5018658;28;19983;-84
2022/03/17 16:59:24;;;;;;;;;;;;;;;;;;5018931;28;19916;-87
2022/03/17 17:01:49;;;;;;;;;;;;;;;;;;5018304;28;19913;-83